Time;durP1;ratioP1;P1;durP2;ratioP2;P2;SDS_P1;SDS_P2;PMS_P1;PMS_P2;Temp;Humidity;BMP_temperature;BMP_pressure;BME280_temperature;BME280_humidity;BME280_pressure;Samples;Min_cycle;Max_cycle;Signal;HPM_P1;HPM_P2
2022/12/09 00:01:10;;;;;;;12.73;6.47;;;2.20;99.90;;;;;;4980376;28;20182;-82
2022/12/09 00:03:36;;;;;;;7.83;5.83;;;2.10;99.90;;;;;;4991587;28;20200;-82
2022/12/09 00:06:11;;;;;;;5.97;3.87;;;2.30;99.90;;;;;;4994293;28;20189;-83
2022/12/09 00:08:37;;;;;;;13.03;4.77;;;2.10;99.90;;;;;;4978721;28;20189;-82
2022/12/09 00:11:03;;;;;;;9.60;4.17;;;2.10;99.90;;;;;;4993597;28;20182;-83
2022/12/09 00:13:28;;;;;;;13.40;4.60;;;2.30;99.90;;;;;;4925166;29;20661;-82
2022/12/09 00:15:55;;;;;;;6.37;4.37;;;2.10;99.90;;;;;;4958202;29;20185;-81
2022/12/09 00:18:21;;;;;;;5.60;4.20;;;2.10;99.90;;;;;;4947829;29;20177;-82
2022/12/09 00:20:46;;;;;;;5.13;4.00;;;2.20;99.90;;;;;;4975675;28;20234;-82
2022/12/09 00:23:12;;;;;;;5.73;4.53;;;2.20;99.90;;;;;;4980239;28;20214;-83
2022/12/09 00:25:38;;;;;;;7.90;5.60;;;4.20;99.90;;;;;;4934725;29;20205;-82
2022/12/09 00:28:04;;;;;;;9.53;6.57;;;3.30;99.90;;;;;;4939761;29;20655;-82
2022/12/09 00:30:29;;;;;;;22.07;8.97;;;2.20;99.90;;;;;;4957004;29;20196;-82
2022/12/09 00:32:55;;;;;;;14.90;5.60;;;2.20;99.90;;;;;;4957194;29;20191;-82
2022/12/09 00:35:21;;;;;;;14.97;6.73;;;3.60;99.90;;;;;;4956810;29;20211;-82
2022/12/09 00:37:47;;;;;;;14.03;6.87;;;2.10;99.90;;;;;;4957332;29;20187;-82
2022/12/09 00:40:14;;;;;;;20.97;6.50;;;2.20;99.90;;;;;;4939226;29;20235;-82
2022/12/09 00:42:40;;;;;;;11.10;6.13;;;;;;;;;;4924438;29;20639;-82
2022/12/09 00:45:07;;;;;;;11.93;4.40;;;2.10;99.90;;;;;;4956609;29;20275;-82
2022/12/09 00:47:33;;;;;;;10.30;5.07;;;2.10;99.90;;;;;;4956501;28;20528;-82
2022/12/09 00:49:59;;;;;;;7.83;5.93;;;2.20;99.90;;;;;;4956202;29;20277;-82
2022/12/09 00:52:24;;;;;;;9.67;3.87;;;2.20;99.90;;;;;;4923732;29;20221;-82
2022/12/09 00:54:50;;;;;;;8.77;3.20;;;2.30;99.90;;;;;;4940004;29;20781;-82
2022/12/09 00:57:15;;;;;;;8.00;5.37;;;2.40;99.90;;;;;;4961500;28;20588;-83
2022/12/09 00:59:41;;;;;;;6.00;3.20;;;2.20;99.90;;;;;;4957651;28;20313;-82
2022/12/09 01:02:07;;;;;;;7.80;2.90;;;2.20;99.90;;;;;;4957383;28;20191;-83
2022/12/09 01:04:33;;;;;;;5.83;3.87;;;;;;;;;;4974787;28;20276;-82
2022/12/09 01:06:58;;;;;;;8.60;5.80;;;2.20;99.90;;;;;;4957364;28;20183;-83
2022/12/09 01:09:24;;;;;;;12.27;5.37;;;3.10;99.90;;;;;;4974829;28;20178;-82
2022/12/09 01:11:49;;;;;;;7.83;4.63;;;2.70;99.90;;;;;;4957415;28;20183;-82
2022/12/09 01:14:15;;;;;;;4.47;3.63;;;2.30;99.90;;;;;;4957311;28;20180;-82
2022/12/09 01:16:41;;;;;;;7.27;3.90;;;2.20;99.90;;;;;;4974599;28;20195;-82
2022/12/09 01:19:09;;;;;;;10.40;3.87;;;2.20;99.90;;;;;;4974438;28;20175;-82
2022/12/09 01:21:35;;;;;;;7.23;4.07;;;3.60;99.90;;;;;;4957203;28;20184;-82
2022/12/09 01:24:04;;;;;;;5.13;4.13;;;2.30;99.90;;;;;;4957138;28;20269;-82
2022/12/09 01:26:30;;;;;;;8.37;5.13;;;3.10;99.90;;;;;;4957549;28;20614;-82
2022/12/09 01:28:56;;;;;;;21.73;7.90;;;2.30;99.90;;;;;;4974388;28;20261;-83
2022/12/09 01:31:23;;;;;;;7.07;4.70;;;2.30;99.90;;;;;;4957386;28;20239;-83
2022/12/09 01:33:49;;;;;;;11.13;4.93;;;2.40;99.90;;;;;;4957050;28;20185;-82
2022/12/09 01:36:25;;;;;;;25.90;10.57;;;2.30;99.90;;;;;;4974376;28;20182;-82
2022/12/09 01:38:51;;;;;;;4.40;3.57;;;2.30;99.90;;;;;;4957447;28;20191;-82
2022/12/09 01:41:18;;;;;;;2.93;2.70;;;2.50;99.90;;;;;;4974225;28;20185;-82
2022/12/09 01:44:05;;;;;;;3.70;2.10;;;3.50;99.90;;;;;;4957147;28;20224;-82
2022/12/09 01:46:30;;;;;;;5.03;3.47;;;2.40;99.90;;;;;;4976834;28;20196;-82
2022/12/09 01:48:56;;;;;;;4.73;2.37;;;2.50;99.90;;;;;;4960212;28;20769;-82
2022/12/09 01:51:22;;;;;;;3.63;2.43;;;2.50;99.90;;;;;;4956911;28;20190;-83
2022/12/09 01:53:50;;;;;;;2.53;2.33;;;2.50;99.90;;;;;;4941083;28;20278;-82
2022/12/09 01:56:21;;;;;;;3.80;2.17;;;2.60;99.90;;;;;;4968872;28;20226;-83
2022/12/09 01:58:48;;;;;;;2.00;1.07;;;2.60;99.90;;;;;;4955318;28;20164;-82
2022/12/09 02:01:16;;;;;;;8.60;2.20;;;2.70;99.90;;;;;;4940888;29;20178;-82
2022/12/09 02:03:41;;;;;;;3.57;1.87;;;2.70;99.90;;;;;;4958776;29;20232;-82
2022/12/09 02:06:07;;;;;;;5.70;2.87;;;3.00;99.90;;;;;;4925508;29;20218;-83
2022/12/09 02:08:33;;;;;;;3.07;2.70;;;4.80;99.90;;;;;;4958475;29;20213;-82
2022/12/09 02:11:12;;;;;;;2.93;1.87;;;2.80;99.90;;;;;;4958662;29;20190;-82
2022/12/09 02:13:56;;;;;;;3.90;2.40;;;3.40;99.90;;;;;;4958606;29;20249;-82
2022/12/09 02:16:25;;;;;;;0.80;0.80;;;2.90;99.90;;;;;;4941165;29;20210;-83
2022/12/09 02:19:02;;;;;;;4.77;1.40;;;3.50;99.90;;;;;;4941186;29;20183;-82
2022/12/09 02:21:36;;;;;;;2.23;1.43;;;2.90;99.90;;;;;;4958496;29;20692;-82
2022/12/09 02:24:28;;;;;;;1.80;1.33;;;2.90;99.90;;;;;;4958116;29;20202;-83
2022/12/09 02:27:15;;;;;;;2.47;1.73;;;2.80;99.90;;;;;;4936562;29;20211;-82
2022/12/09 02:30:02;;;;;;;1.47;1.43;;;2.80;99.90;;;;;;4958672;29;20245;-82
2022/12/09 02:32:49;;;;;;;1.53;1.43;;;2.80;99.90;;;;;;4941268;29;20522;-82
2022/12/09 02:35:30;;;;;;;5.13;2.00;;;2.70;99.90;;;;;;4957644;29;20185;-82
2022/12/09 02:38:18;;;;;;;2.27;1.37;;;2.70;99.90;;;;;;4958141;29;20655;-82
2022/12/09 02:40:52;;;;;;;3.10;2.50;;;2.70;99.90;;;;;;4958535;29;20188;-82
2022/12/09 02:43:23;;;;;;;1.50;1.40;;;2.70;99.90;;;;;;4957760;29;20209;-82
2022/12/09 02:45:50;;;;;;;1.97;1.87;;;2.70;99.90;;;;;;4957783;29;20170;-82
2022/12/09 02:48:20;;;;;;;2.13;1.83;;;4.90;99.90;;;;;;4957756;29;20187;-82
2022/12/09 02:50:49;;;;;;;1.73;1.63;;;2.60;99.90;;;;;;4957853;29;20304;-82
2022/12/09 02:53:16;;;;;;;1.10;1.10;;;2.80;99.90;;;;;;4940354;29;20191;-82
2022/12/09 02:55:45;;;;;;;1.40;1.40;;;2.60;99.90;;;;;;4957420;28;20214;-82
2022/12/09 02:58:11;;;;;;;3.33;1.93;;;2.60;99.90;;;;;;4957539;29;20665;-82
2022/12/09 03:00:39;;;;;;;2.63;1.63;;;3.40;99.90;;;;;;4957673;29;20185;-82
2022/12/09 03:03:08;;;;;;;1.80;1.67;;;3.30;99.90;;;;;;4957295;29;20217;-82
2022/12/09 03:05:49;;;;;;;4.67;1.53;;;2.60;99.90;;;;;;4957348;29;20176;-82
2022/12/09 03:08:40;;;;;;;1.83;1.37;;;3.00;99.90;;;;;;4940033;29;20182;-83
2022/12/09 03:11:18;;;;;;;2.20;1.83;;;2.50;99.90;;;;;;4939236;29;20182;-82
2022/12/09 03:14:04;;;;;;;3.40;2.10;;;2.50;99.90;;;;;;4956646;29;20195;-83
2022/12/09 03:16:49;;;;;;;1.77;1.67;;;2.50;99.90;;;;;;4940073;29;20206;-82
2022/12/09 03:19:21;;;;;;;2.50;2.40;;;2.50;99.90;;;;;;4939848;29;20186;-82
2022/12/09 03:21:49;;;;;;;5.40;3.13;;;2.50;99.90;;;;;;4957503;29;20182;-82
2022/12/09 03:24:20;;;;;;;4.07;3.30;;;2.50;99.90;;;;;;4957040;29;20295;-82
2022/12/09 03:26:48;;;;;;;3.00;2.33;;;2.50;99.90;;;;;;4957699;29;20170;-82
2022/12/09 03:29:20;;;;;;;9.93;3.40;;;3.30;99.90;;;;;;4956774;29;20180;-82
2022/12/09 03:31:47;;;;;;;2.03;1.93;;;2.70;99.90;;;;;;4957298;29;20234;-82
2022/12/09 03:34:16;;;;;;;7.00;2.70;;;2.50;99.90;;;;;;4956603;29;20210;-83
2022/12/09 03:36:44;;;;;;;4.00;2.87;;;2.50;99.90;;;;;;4957114;29;20179;-82
2022/12/09 03:39:13;;;;;;;6.83;4.10;;;3.30;99.90;;;;;;4957224;29;20268;-84
2022/12/09 03:41:44;;;;;;;8.10;3.73;;;3.70;99.90;;;;;;4956792;29;20232;-82
2022/12/09 03:44:23;;;;;;;14.13;4.77;;;2.50;99.90;;;;;;4956761;29;20203;-84
2022/12/09 03:46:49;;;;;;;7.80;4.67;;;2.50;99.90;;;;;;4939630;29;20217;-83
2022/12/09 03:49:15;;;;;;;14.00;7.67;;;;;;;;;;4956612;29;20175;-83
2022/12/09 03:51:55;;;;;;;34.90;10.77;;;2.50;99.90;;;;;;4925880;29;20222;-83
2022/12/09 03:54:43;;;;;;;33.87;10.73;;;2.50;99.90;;;;;;4937076;29;20188;-83
2022/12/09 03:57:14;;;;;;;27.03;6.60;;;2.50;99.90;;;;;;4948970;29;20226;-83
2022/12/09 03:59:41;;;;;;;12.90;4.57;;;2.40;99.90;;;;;;4956919;29;20233;-83
2022/12/09 04:02:07;;;;;;;37.67;5.53;;;2.40;99.90;;;;;;4939922;29;20180;-83
2022/12/09 04:04:37;;;;;;;7.53;4.87;;;2.40;99.90;;;;;;4956263;29;20661;-82
2022/12/09 04:07:02;;;;;;;8.03;4.70;;;2.30;99.90;;;;;;4956723;29;20186;-83
2022/12/09 04:09:28;;;;;;;5.57;3.50;;;2.70;99.90;;;;;;4957661;28;20255;-83
2022/12/09 04:11:54;;;;;;;14.47;4.13;;;3.70;99.90;;;;;;4939183;29;20273;-83
2022/12/09 04:14:19;;;;;;;7.23;3.00;;;2.20;99.90;;;;;;4956025;29;20194;-83
2022/12/09 04:16:45;;;;;;;6.87;4.73;;;2.30;99.90;;;;;;4939426;29;20648;-83
2022/12/09 04:19:11;;;;;;;7.53;4.47;;;;;;;;;;4958150;28;20644;-83
2022/12/09 04:21:37;;;;;;;6.67;4.33;;;2.20;99.90;;;;;;4962811;28;20274;-83
2022/12/09 04:24:03;;;;;;;3.70;3.37;;;2.90;99.90;;;;;;4965521;28;20241;-83
2022/12/09 04:26:28;;;;;;;7.03;3.57;;;2.20;99.90;;;;;;4951173;28;20628;-83
2022/12/09 04:28:54;;;;;;;6.20;3.73;;;2.20;99.90;;;;;;4974626;28;20190;-83
2022/12/09 04:31:20;;;;;;;4.77;3.87;;;2.60;99.90;;;;;;4957785;28;20189;-84
2022/12/09 04:33:46;;;;;;;5.27;3.63;;;2.20;99.90;;;;;;4958121;28;20194;-83
2022/12/09 04:36:15;;;;;;;5.17;3.37;;;4.00;99.90;;;;;;4975241;28;20190;-83
2022/12/09 04:38:41;;;;;;;2.70;2.47;;;2.20;99.90;;;;;;4975021;28;20175;-83
2022/12/09 04:41:07;;;;;;;3.27;2.47;;;2.10;99.90;;;;;;4974852;28;20598;-83
2022/12/09 04:43:33;;;;;;;6.03;3.87;;;2.60;99.90;;;;;;4941743;28;20228;-83
2022/12/09 04:46:05;;;;;;;4.93;3.10;;;2.10;99.90;;;;;;4974927;28;20256;-82
2022/12/09 04:48:31;;;;;;;6.60;3.07;;;2.10;99.90;;;;;;4972377;28;20275;-83
2022/12/09 04:50:58;;;;;;;5.30;3.67;;;2.10;99.90;;;;;;4979583;28;20267;-83
2022/12/09 04:53:24;;;;;;;8.17;3.80;;;2.10;99.90;;;;;;4971870;28;20209;-83
2022/12/09 04:56:02;;;;;;;6.97;3.70;;;2.10;99.90;;;;;;4972954;28;20194;-83
2022/12/09 04:58:28;;;;;;;5.30;4.37;;;3.30;99.90;;;;;;4955795;28;20594;-83
2022/12/09 05:00:54;;;;;;;6.10;4.43;;;2.10;99.90;;;;;;4974029;28;20217;-83
2022/12/09 05:03:20;;;;;;;3.50;2.70;;;2.60;99.90;;;;;;4957371;28;20302;-85
2022/12/09 05:05:46;;;;;;;7.07;3.13;;;2.00;99.90;;;;;;4943781;28;20232;-83
2022/12/09 05:08:12;;;;;;;4.73;3.37;;;2.10;99.90;;;;;;4957836;28;20193;-83
2022/12/09 05:10:38;;;;;;;4.17;2.87;;;2.00;99.90;;;;;;4974704;28;20217;-83
2022/12/09 05:13:04;;;;;;;5.00;3.70;;;2.00;99.90;;;;;;4957370;28;20221;-83
2022/12/09 05:15:29;;;;;;;9.80;4.60;;;3.50;99.90;;;;;;4956399;28;20186;-83
2022/12/09 05:17:57;;;;;;;6.57;3.90;;;2.00;99.90;;;;;;4957493;28;20186;-83
2022/12/09 05:20:26;;;;;;;9.73;4.27;;;2.40;99.90;;;;;;4957493;28;20317;-84
2022/12/09 05:22:52;;;;;;;12.50;4.77;;;3.60;99.90;;;;;;4974519;28;20227;-83
2022/12/09 05:25:18;;;;;;;19.80;5.90;;;3.00;99.90;;;;;;4974466;28;20654;-83
2022/12/09 05:27:43;;;;;;;8.60;4.50;;;2.00;99.90;;;;;;4944679;28;20182;-83
2022/12/09 05:30:09;;;;;;;9.57;5.93;;;2.00;99.90;;;;;;4974384;28;20220;-83
2022/12/09 05:32:35;;;;;;;8.67;5.47;;;2.00;99.90;;;;;;4969538;28;20204;-84
2022/12/09 05:35:00;;;;;;;8.77;3.57;;;2.00;99.90;;;;;;4972267;28;20191;-81
2022/12/09 05:37:26;;;;;;;7.80;5.10;;;3.20;99.90;;;;;;4962319;28;20206;-82
2022/12/09 05:39:51;;;;;;;8.90;4.00;;;2.40;99.90;;;;;;4971560;28;20192;-82
2022/12/09 05:42:17;;;;;;;24.53;6.07;;;2.00;99.90;;;;;;4964126;28;20688;-82
2022/12/09 05:44:43;;;;;;;7.33;5.30;;;2.00;99.90;;;;;;4955362;28;20736;-82
2022/12/09 05:47:08;;;;;;;4.97;3.30;;;2.60;99.90;;;;;;4973302;28;20189;-81
2022/12/09 05:49:34;;;;;;;6.30;3.93;;;2.00;99.90;;;;;;4931669;28;20188;-84
2022/12/09 05:52:00;;;;;;;6.00;5.03;;;2.10;99.90;;;;;;4961979;28;20190;-83
2022/12/09 05:54:25;;;;;;;10.03;4.50;;;3.60;99.90;;;;;;4949924;29;20198;-82
2022/12/09 05:56:51;;;;;;;8.33;5.33;;;2.10;99.90;;;;;;4974654;28;20236;-82
2022/12/09 05:59:17;;;;;;;19.30;6.10;;;2.00;99.90;;;;;;4961081;28;20652;-82
2022/12/09 06:01:42;;;;;;;10.63;5.60;;;3.00;99.90;;;;;;4944149;28;20195;-82
2022/12/09 06:04:08;;;;;;;21.83;5.40;;;3.00;99.90;;;;;;4975383;28;20672;-82
2022/12/09 06:06:34;;;;;;;8.47;6.53;;;2.00;99.90;;;;;;4973542;28;20198;-83
2022/12/09 06:09:00;;;;;;;13.37;6.63;;;2.00;99.90;;;;;;4973110;28;20180;-83
2022/12/09 06:11:26;;;;;;;8.57;5.13;;;2.10;99.90;;;;;;4971677;28;20182;-82
2022/12/09 06:13:53;;;;;;;9.00;6.37;;;2.10;99.90;;;;;;4954062;28;20674;-83
2022/12/09 06:16:20;;;;;;;9.63;5.93;;;2.00;99.90;;;;;;4961514;28;20197;-82
2022/12/09 06:18:47;;;;;;;11.00;5.97;;;2.70;99.90;;;;;;4977368;28;20218;-82
2022/12/09 06:21:14;;;;;;;15.17;6.53;;;2.10;99.90;;;;;;4967682;28;20552;-82
2022/12/09 06:23:41;;;;;;;10.43;7.23;;;2.10;99.90;;;;;;4961081;28;20212;-82
2022/12/09 06:26:13;;;;;;;14.10;6.70;;;2.10;99.90;;;;;;4965043;28;20599;-83
2022/12/09 06:28:39;;;;;;;14.13;4.93;;;2.00;99.90;;;;;;4976241;28;20198;-82
2022/12/09 06:31:04;;;;;;;34.50;7.53;;;2.00;99.90;;;;;;4971597;28;20192;-81
2022/12/09 06:33:30;;;;;;;15.07;7.27;;;2.50;99.90;;;;;;4969309;28;20201;-84
2022/12/09 06:36:00;;;;;;;12.90;5.83;;;2.00;99.90;;;;;;4978421;28;20201;-83
2022/12/09 06:38:26;;;;;;;18.33;7.63;;;2.10;99.90;;;;;;5000482;28;20248;-83
2022/12/09 06:40:52;;;;;;;13.93;6.40;;;3.70;99.90;;;;;;4992445;28;20183;-82
2022/12/09 06:43:17;;;;;;;13.40;6.37;;;2.00;99.90;;;;;;4980128;28;20199;-82
2022/12/09 06:45:43;;;;;;;7.60;5.27;;;2.00;99.90;;;;;;4970253;28;20188;-82
2022/12/09 06:48:08;;;;;;;10.43;6.97;;;2.00;99.90;;;;;;4933981;28;20209;-83
2022/12/09 06:50:35;;;;;;;9.27;6.87;;;2.10;99.90;;;;;;4967714;28;20182;-82
2022/12/09 06:53:01;;;;;;;9.13;7.10;;;2.10;99.90;;;;;;4976207;28;20197;-82
2022/12/09 06:55:27;;;;;;;11.13;6.53;;;2.00;99.90;;;;;;4975492;28;20284;-83
2022/12/09 06:57:52;;;;;;;15.43;6.67;;;2.00;99.90;;;;;;4943249;28;20227;-82
2022/12/09 07:00:19;;;;;;;15.80;6.80;;;2.00;99.90;;;;;;4971592;28;20699;-82
2022/12/09 07:02:44;;;;;;;16.53;7.30;;;2.00;99.90;;;;;;4966011;28;20225;-82
2022/12/09 07:05:10;;;;;;;13.07;6.47;;;2.00;99.90;;;;;;4972851;28;20186;-82
2022/12/09 07:07:35;;;;;;;15.20;6.90;;;2.10;99.90;;;;;;4949131;28;20601;-82
2022/12/09 07:10:04;;;;;;;13.97;6.20;;;3.10;99.90;;;;;;4966808;28;20675;-82
2022/12/09 07:12:29;;;;;;;11.30;6.23;;;2.20;99.90;;;;;;4963803;28;20219;-83
2022/12/09 07:14:55;;;;;;;12.40;5.83;;;2.10;99.90;;;;;;4969521;28;20634;-84
2022/12/09 07:17:21;;;;;;;9.13;7.30;;;2.90;99.90;;;;;;4965237;28;20267;-82
2022/12/09 07:19:47;;;;;;;8.70;6.13;;;2.10;99.90;;;;;;4950133;28;20230;-83
2022/12/09 07:22:13;;;;;;;14.27;7.50;;;2.40;99.90;;;;;;4975868;28;20664;-83
2022/12/09 07:24:40;;;;;;;28.70;8.83;;;2.20;99.90;;;;;;4975579;28;20198;-84
2022/12/09 07:27:07;;;;;;;19.30;9.43;;;2.20;99.90;;;;;;4976139;28;20195;-85
2022/12/09 07:29:35;;;;;;;9.43;4.33;;;2.10;99.90;;;;;;4977625;28;20270;-84
2022/12/09 07:32:01;;;;;;;11.07;6.30;;;2.20;99.90;;;;;;4959176;28;20712;-84
2022/12/09 07:34:27;;;;;;;6.40;4.20;;;;;;;;;;4939481;28;20199;-85
2022/12/09 07:36:53;;;;;;;23.93;8.83;;;2.20;99.90;;;;;;4940162;28;20190;-83
2022/12/09 07:39:20;;;;;;;14.77;8.17;;;;;;;;;;4974005;28;20252;-83
2022/12/09 07:41:51;;;;;;;22.27;10.43;;;2.30;99.90;;;;;;4969778;28;20678;-85
2022/12/09 07:44:17;;;;;;;15.33;7.57;;;4.50;99.90;;;;;;4966267;28;20222;-84
2022/12/09 07:46:42;;;;;;;10.63;4.50;;;2.50;99.90;;;;;;4955988;28;20195;-83
2022/12/09 07:49:10;;;;;;;9.23;4.17;;;2.20;99.90;;;;;;4952425;28;20187;-84
2022/12/09 07:51:36;;;;;;;16.43;4.93;;;;;;;;;;4968228;28;20245;-85
2022/12/09 07:54:02;;;;;;;7.73;3.67;;;2.20;99.90;;;;;;4953041;28;20209;-85
2022/12/09 07:56:28;;;;;;;31.23;13.80;;;2.20;99.90;;;;;;4953177;28;20238;-85
2022/12/09 07:58:55;;;;;;;22.93;10.27;;;2.30;99.90;;;;;;4937873;28;20279;-83
2022/12/09 08:01:24;;;;;;;14.47;8.00;;;2.30;99.90;;;;;;4940021;28;20191;-82
2022/12/09 08:03:50;;;;;;;19.97;10.17;;;2.40;99.90;;;;;;4956424;28;20268;-84
2022/12/09 08:06:18;;;;;;;12.70;7.57;;;2.40;99.90;;;;;;4960000;28;20258;-84
2022/12/09 08:08:44;;;;;;;9.37;6.53;;;2.40;99.90;;;;;;4941917;28;20213;-84
2022/12/09 08:11:15;;;;;;;11.13;6.23;;;2.40;99.90;;;;;;4957149;28;20219;-82
2022/12/09 08:13:41;;;;;;;10.30;4.50;;;2.40;99.90;;;;;;4959423;28;20189;-82
2022/12/09 08:16:09;;;;;;;16.10;7.13;;;2.80;99.90;;;;;;4955747;28;20671;-82
2022/12/09 08:18:35;;;;;;;13.97;6.87;;;2.50;99.90;;;;;;4954674;28;20186;-82
2022/12/09 08:21:06;;;;;;;6.67;5.97;;;2.50;99.90;;;;;;4948604;28;20244;-82
2022/12/09 08:23:32;;;;;;;14.27;6.03;;;2.50;99.90;;;;;;4973690;28;20311;-82
2022/12/09 08:25:58;;;;;;;6.23;4.77;;;2.40;99.90;;;;;;4957386;28;20193;-82
2022/12/09 08:28:24;;;;;;;9.37;4.47;;;2.40;99.90;;;;;;4959351;28;20193;-83
2022/12/09 08:30:50;;;;;;;14.20;5.07;;;3.70;99.90;;;;;;4937607;28;20190;-82
2022/12/09 08:33:16;;;;;;;17.00;6.17;;;2.40;99.90;;;;;;4957420;28;20186;-82
2022/12/09 08:35:43;;;;;;;22.20;6.67;;;2.50;99.90;;;;;;4975340;28;20588;-82
2022/12/09 08:38:09;;;;;;;13.13;6.37;;;;;;;;;;4975464;28;20272;-82
2022/12/09 08:40:34;;;;;;;9.77;6.10;;;2.50;99.90;;;;;;4975060;28;20179;-82
2022/12/09 08:43:07;;;;;;;22.63;8.17;;;2.60;99.90;;;;;;4974450;28;20217;-82
2022/12/09 08:45:36;;;;;;;20.20;6.90;;;2.60;99.90;;;;;;4974725;28;20179;-82
2022/12/09 08:48:01;;;;;;;3.93;3.50;;;2.90;99.90;;;;;;4957325;28;20192;-82
2022/12/09 08:50:27;;;;;;;5.43;3.83;;;2.70;99.90;;;;;;4974820;28;20181;-82
2022/12/09 08:52:52;;;;;;;4.67;3.17;;;2.70;99.90;;;;;;4941612;28;20547;-83
2022/12/09 08:55:18;;;;;;;6.03;3.87;;;2.80;99.90;;;;;;4975380;28;20211;-82
2022/12/09 08:57:44;;;;;;;3.03;2.73;;;2.90;99.90;;;;;;4975237;28;20719;-83
2022/12/09 09:00:10;;;;;;;3.87;3.40;;;2.90;99.90;;;;;;4974684;28;20224;-82
2022/12/09 09:02:35;;;;;;;8.53;3.47;;;2.90;99.90;;;;;;4957907;28;20221;-82
2022/12/09 09:05:02;;;;;;;5.20;3.50;;;3.10;99.90;;;;;;4966483;28;20200;-82
2022/12/09 09:07:29;;;;;;;3.37;2.73;;;3.10;99.90;;;;;;4943431;28;20651;-83
2022/12/09 09:09:55;;;;;;;3.47;3.17;;;3.50;99.90;;;;;;4971380;28;20182;-82
2022/12/09 09:12:21;;;;;;;7.60;3.60;;;3.10;99.90;;;;;;4974861;28;20185;-81
2022/12/09 09:14:46;;;;;;;4.50;3.80;;;3.80;99.90;;;;;;4957334;28;20658;-82
2022/12/09 09:17:12;;;;;;;5.47;4.27;;;3.30;99.90;;;;;;4984077;28;20190;-81
2022/12/09 09:19:37;;;;;;;7.50;3.40;;;3.40;99.90;;;;;;4997417;28;20182;-81
2022/12/09 09:22:03;;;;;;;8.40;4.20;;;3.40;99.90;;;;;;4987173;28;20552;-82
2022/12/09 09:24:30;;;;;;;5.20;3.47;;;3.60;99.90;;;;;;4957977;28;20221;-82
2022/12/09 09:26:56;;;;;;;5.57;3.60;;;3.70;99.90;;;;;;4975159;28;20182;-82
2022/12/09 09:29:22;;;;;;;5.90;3.90;;;3.70;99.90;;;;;;4975311;28;20209;-82
2022/12/09 09:31:52;;;;;;;13.20;3.27;;;3.80;99.90;;;;;;4967837;28;20185;-83
2022/12/09 09:34:19;;;;;;;6.10;3.67;;;4.70;99.90;;;;;;4955965;28;20175;-84
2022/12/09 09:36:45;;;;;;;3.93;3.03;;;4.40;99.90;;;;;;4948026;28;20262;-83
2022/12/09 09:39:11;;;;;;;8.30;3.17;;;4.00;99.90;;;;;;4962827;28;20250;-83
2022/12/09 09:41:49;;;;;;;9.57;4.53;;;4.10;99.90;;;;;;4961137;28;20212;-83
2022/12/09 09:44:24;;;;;;;4.63;3.00;;;4.00;99.90;;;;;;4960320;28;20211;-82
2022/12/09 09:46:51;;;;;;;5.60;2.73;;;4.10;99.90;;;;;;4955723;29;20238;-83
2022/12/09 09:49:29;;;;;;;5.73;3.33;;;4.10;99.90;;;;;;4937626;28;20186;-83
2022/12/09 09:51:55;;;;;;;6.57;3.53;;;4.10;99.90;;;;;;4947822;29;20281;-83
2022/12/09 09:54:21;;;;;;;4.27;2.63;;;4.20;99.90;;;;;;4938228;29;20190;-83
2022/12/09 09:57:30;;;;;;;7.33;2.17;;;4.20;99.90;;;;;;4938241;29;20242;-83
2022/12/09 09:59:59;;;;;;;4.27;2.73;;;4.20;99.90;;;;;;4910350;29;20285;-83
2022/12/09 10:02:53;;;;;;;3.33;3.00;;;4.20;99.90;;;;;;4940056;28;20675;-83
2022/12/09 10:05:24;;;;;;;3.77;2.80;;;4.20;99.90;;;;;;4948947;29;20207;-83
2022/12/09 10:08:06;;;;;;;9.43;3.90;;;4.20;99.90;;;;;;4956444;28;20187;-83
2022/12/09 10:10:58;;;;;;;3.30;3.00;;;4.30;99.90;;;;;;4963467;28;20186;-84
2022/12/09 10:13:52;;;;;;;6.37;4.17;;;4.10;99.90;;;;;;4961946;28;20198;-82
2022/12/09 10:16:21;;;;;;;7.67;3.53;;;4.10;99.90;;;;;;4957082;28;20186;-85
2022/12/09 10:18:52;;;;;;;3.77;3.37;;;4.30;99.90;;;;;;4968837;28;20190;-82
2022/12/09 10:21:20;;;;;;;5.80;4.40;;;4.50;99.90;;;;;;4975810;28;20695;-82
2022/12/09 10:23:47;;;;;;;6.50;3.70;;;4.50;99.90;;;;;;4960118;28;20287;-82
2022/12/09 10:26:24;;;;;;;4.03;3.63;;;4.60;99.90;;;;;;4943009;28;20184;-83
2022/12/09 10:29:14;;;;;;;3.53;2.27;;;4.60;99.90;;;;;;4974378;28;20186;-83
2022/12/09 10:31:39;;;;;;;4.27;3.50;;;4.70;99.90;;;;;;4957608;29;20206;-82
2022/12/09 10:34:07;;;;;;;6.90;4.67;;;4.70;99.90;;;;;;4939708;29;20659;-83
2022/12/09 10:36:33;;;;;;;7.53;3.93;;;4.50;99.90;;;;;;4957184;29;20183;-83
2022/12/09 10:38:59;;;;;;;7.57;3.27;;;4.40;99.90;;;;;;4959434;28;20202;-82
2022/12/09 10:44:29;;;;;;;2.27;2.13;;;;;;;;;;4968179;28;20273;-83
2022/12/09 10:47:05;;;;;;;4.57;3.53;;;4.40;99.90;;;;;;4966128;28;20181;-84
2022/12/09 10:49:33;;;;;;;7.10;4.43;;;4.50;99.90;;;;;;4964020;28;20649;-83
2022/12/09 10:51:59;;;;;;;6.07;4.67;;;4.50;99.90;;;;;;4948814;28;20641;-84
2022/12/09 10:54:39;;;;;;;8.40;2.77;;;4.50;99.90;;;;;;4942441;28;20202;-83
2022/12/09 10:57:27;;;;;;;3.87;3.27;;;4.40;99.90;;;;;;4958213;28;20766;-82
2022/12/09 11:00:20;;;;;;;6.53;3.77;;;4.50;99.90;;;;;;4976202;28;20573;-84
2022/12/09 11:02:51;;;;;;;3.93;2.57;;;5.20;99.90;;;;;;4963207;28;20234;-82
2022/12/09 11:05:28;;;;;;;6.80;3.63;;;4.70;99.90;;;;;;4962692;28;20822;-83
2022/12/09 11:07:56;;;;;;;6.57;4.10;;;4.90;99.90;;;;;;4949943;28;20178;-82
2022/12/09 11:10:24;;;;;;;5.17;2.90;;;5.00;99.90;;;;;;4966424;28;21010;-82
2022/12/09 11:12:53;;;;;;;8.57;4.33;;;5.30;99.90;;;;;;4967068;28;20217;-82
2022/12/09 11:15:24;;;;;;;7.60;4.33;;;5.60;99.90;;;;;;4948562;28;20182;-83
2022/12/09 11:18:06;;;;;;;6.97;4.20;;;6.20;99.90;;;;;;4944231;29;20194;-82
2022/12/09 11:20:33;;;;;;;9.17;4.67;;;7.30;99.90;;;;;;4962926;28;20538;-82
2022/12/09 11:23:11;;;;;;;5.10;3.47;;;8.40;99.90;;;;;;4975255;28;20269;-84
2022/12/09 11:25:49;;;;;;;8.67;4.40;;;8.80;99.90;;;;;;4975767;28;20186;-83
2022/12/09 11:28:14;;;;;;;6.37;3.57;;;9.00;99.90;;;;;;4942909;28;20186;-83
2022/12/09 11:30:49;;;;;;;9.70;4.23;;;9.20;99.90;;;;;;4956795;29;20187;-84
2022/12/09 11:33:25;;;;;;;10.60;4.90;;;9.10;99.90;;;;;;4973873;28;20170;-83
2022/12/09 11:36:18;;;;;;;7.33;4.30;;;8.70;99.90;;;;;;4958558;28;20237;-83
2022/12/09 11:38:46;;;;;;;5.43;3.67;;;8.30;99.90;;;;;;4939176;29;20206;-85
2022/12/09 11:42:12;;;;;;;6.17;4.40;;;8.30;99.90;;;;;;4959757;28;20187;-85
2022/12/09 11:44:24;;;;;;;9.30;4.20;;;9.00;99.90;;;;;;4956743;28;20258;-84
2022/12/09 11:47:00;;;;;;;9.70;4.50;;;9.20;99.90;;;;;;4950288;28;20188;-83
2022/12/09 11:49:28;;;;;;;8.63;3.47;;;9.50;99.90;;;;;;4965588;28;20651;-83
2022/12/09 11:52:15;;;;;;;8.57;3.77;;;9.30;97.30;;;;;;4947450;28;20189;-84
2022/12/09 11:54:52;;;;;;;6.00;3.67;;;9.00;98.90;;;;;;4970429;28;20178;-85
2022/12/09 11:57:53;;;;;;;10.47;3.90;;;8.50;98.30;;;;;;4966114;28;20620;-84
2022/12/09 12:00:25;;;;;;;9.40;3.97;;;7.90;99.90;;;;;;4968030;28;20969;-84
2022/12/09 12:03:11;;;;;;;14.93;3.07;;;7.30;99.90;;;;;;4973814;28;20237;-84
2022/12/09 12:05:42;;;;;;;3.70;2.97;;;7.00;99.90;;;;;;4953482;28;20186;-84
2022/12/09 12:08:13;;;;;;;3.40;2.53;;;6.70;99.90;;;;;;4967436;28;20589;-84
2022/12/09 12:10:43;;;;;;;7.80;2.90;;;6.70;99.90;;;;;;4970190;28;20175;-84
2022/12/09 12:13:32;;;;;;;4.83;2.90;;;6.60;99.90;;;;;;4974813;28;20181;-87
2022/12/09 12:16:26;;;;;;;3.97;2.30;;;6.50;99.90;;;;;;4973684;28;20257;-83
2022/12/09 12:18:58;;;;;;;4.33;3.20;;;6.90;99.90;;;;;;4952861;29;20181;-84
2022/12/09 12:21:53;;;;;;;2.87;2.03;;;6.90;99.90;;;;;;4964574;28;20175;-83
2022/12/09 12:24:56;;;;;;;8.07;3.43;;;8.00;99.90;;;;;;4964652;28;20202;-83
2022/12/09 12:27:59;;;;;;;9.97;3.50;;;8.20;99.90;;;;;;4946635;28;20182;-83
2022/12/09 12:30:36;;;;;;;8.03;4.50;;;8.80;99.90;;;;;;4946026;29;20281;-84
2022/12/09 12:33:28;;;;;;;7.47;3.67;;;9.20;99.70;;;;;;4965881;28;20190;-83
2022/12/09 12:36:09;;;;;;;12.03;4.23;;;9.10;99.90;;;;;;4966472;28;20180;-83
2022/12/09 12:38:53;;;;;;;14.83;3.57;;;8.70;99.90;;;;;;4965247;28;20172;-84
2022/12/09 12:41:38;;;;;;;6.68;3.83;;;8.60;99.90;;;;;;4948396;28;20269;-84
2022/12/09 12:47:51;;;;;;;11.77;5.13;;;9.50;98.60;;;;;;4966389;28;20183;-81
2022/12/09 12:50:29;;;;;;;16.30;6.37;;;8.90;98.40;;;;;;4948984;28;20191;-83
2022/12/09 12:53:26;;;;;;;17.47;8.60;;;8.40;99.90;;;;;;4974827;28;20174;-84
2022/12/09 12:56:22;;;;;;;27.10;7.43;;;7.80;99.90;;;;;;4964032;28;20168;-84
2022/12/09 12:59:02;;;;;;;25.13;8.70;;;7.40;99.90;;;;;;4989965;28;20190;-84
2022/12/09 13:01:53;;;;;;;37.00;8.60;;;6.90;99.90;;;;;;4982212;28;20237;-84
2022/12/09 13:04:37;;;;;;;9.70;4.57;;;6.60;99.90;;;;;;4953813;28;20281;-83
2022/12/09 13:07:31;;;;;;;9.90;4.47;;;6.40;99.90;;;;;;4968907;28;20257;-84
2022/12/09 13:10:14;;;;;;;10.97;5.13;;;6.20;99.90;;;;;;4970394;28;20214;-84
2022/12/09 13:12:55;;;;;;;12.60;5.93;;;6.00;99.90;;;;;;4983960;28;20179;-84
2022/12/09 13:15:31;;;;;;;16.97;6.93;;;5.90;99.90;;;;;;4966691;28;20180;-83
2022/12/09 13:18:00;;;;;;;15.17;6.50;;;5.80;99.90;;;;;;4968260;28;20182;-84
2022/12/09 13:20:44;;;;;;;7.73;4.03;;;5.80;99.90;;;;;;4966487;28;20214;-82